sensor_id;sensor_type;location;lat;lon;timestamp;P1;durP1;ratioP1;P2;durP2;ratioP2
41657;SDS011;27347;57.132;-2.084;2022-11-20T00:02:23;24.45;;;3.85;;
41657;SDS011;27347;57.132;-2.084;2022-11-20T00:04:49;25.42;;;4.22;;
41657;SDS011;27347;57.132;-2.084;2022-11-20T00:07:14;23.65;;;3.90;;
41657;SDS011;27347;57.132;-2.084;2022-11-20T00:09:40;26.92;;;4.70;;
41657;SDS011;27347;57.132;-2.084;2022-11-20T00:12:05;18.65;;;3.75;;
41657;SDS011;27347;57.132;-2.084;2022-11-20T00:14:31;27.58;;;5.10;;
41657;SDS011;27347;57.132;-2.084;2022-11-20T00:16:56;29.83;;;3.95;;
41657;SDS011;27347;57.132;-2.084;2022-11-20T00:19:21;14.85;;;2.83;;
41657;SDS011;27347;57.132;-2.084;2022-11-20T00:21:47;18.08;;;3.33;;
41657;SDS011;27347;57.132;-2.084;2022-11-20T00:24:12;23.00;;;3.72;;
41657;SDS011;27347;57.132;-2.084;2022-11-20T00:26:38;20.55;;;3.83;;
41657;SDS011;27347;57.132;-2.084;2022-11-20T00:29:03;16.13;;;3.33;;
41657;SDS011;27347;57.132;-2.084;2022-11-20T00:31:29;17.10;;;3.00;;
41657;SDS011;27347;57.132;-2.084;2022-11-20T00:33:55;22.65;;;3.15;;
41657;SDS011;27347;57.132;-2.084;2022-11-20T00:36:22;19.63;;;4.15;;
41657;SDS011;27347;57.132;-2.084;2022-11-20T00:38:52;21.33;;;3.80;;
41657;SDS011;27347;57.132;-2.084;2022-11-20T00:41:18;23.23;;;3.92;;
41657;SDS011;27347;57.132;-2.084;2022-11-20T00:43:43;22.38;;;4.03;;
41657;SDS011;27347;57.132;-2.084;2022-11-20T00:46:15;22.50;;;4.40;;
41657;SDS011;27347;57.132;-2.084;2022-11-20T00:48:42;17.35;;;3.53;;
41657;SDS011;27347;57.132;-2.084;2022-11-20T00:51:08;15.38;;;3.35;;
41657;SDS011;27347;57.132;-2.084;2022-11-20T00:53:34;26.30;;;4.03;;
41657;SDS011;27347;57.132;-2.084;2022-11-20T00:56:00;21.38;;;3.90;;
41657;SDS011;27347;57.132;-2.084;2022-11-20T00:58:29;12.23;;;2.88;;
41657;SDS011;27347;57.132;-2.084;2022-11-20T01:01:08;25.55;;;3.75;;
41657;SDS011;27347;57.132;-2.084;2022-11-20T01:03:42;30.63;;;4.57;;
41657;SDS011;27347;57.132;-2.084;2022-11-20T01:06:13;28.00;;;4.47;;
41657;SDS011;27347;57.132;-2.084;2022-11-20T01:08:40;18.80;;;3.50;;
41657;SDS011;27347;57.132;-2.084;2022-11-20T01:11:07;21.85;;;4.40;;
41657;SDS011;27347;57.132;-2.084;2022-11-20T01:13:34;24.98;;;3.78;;
41657;SDS011;27347;57.132;-2.084;2022-11-20T01:16:07;27.85;;;4.45;;
41657;SDS011;27347;57.132;-2.084;2022-11-20T01:18:36;22.73;;;3.50;;
41657;SDS011;27347;57.132;-2.084;2022-11-20T01:21:14;17.08;;;4.22;;
41657;SDS011;27347;57.132;-2.084;2022-11-20T01:23:41;10.95;;;2.85;;
41657;SDS011;27347;57.132;-2.084;2022-11-20T01:26:08;31.67;;;5.10;;
41657;SDS011;27347;57.132;-2.084;2022-11-20T01:28:36;21.10;;;4.03;;
41657;SDS011;27347;57.132;-2.084;2022-11-20T01:31:01;15.60;;;3.67;;
41657;SDS011;27347;57.132;-2.084;2022-11-20T01:33:27;27.95;;;3.95;;
41657;SDS011;27347;57.132;-2.084;2022-11-20T01:35:53;30.80;;;4.30;;
41657;SDS011;27347;57.132;-2.084;2022-11-20T01:38:18;28.40;;;4.45;;
41657;SDS011;27347;57.132;-2.084;2022-11-20T01:40:45;20.50;;;4.45;;
41657;SDS011;27347;57.132;-2.084;2022-11-20T01:43:16;24.48;;;4.53;;
41657;SDS011;27347;57.132;-2.084;2022-11-20T01:48:29;18.48;;;4.93;;
41657;SDS011;27347;57.132;-2.084;2022-11-20T01:54:22;17.95;;;4.32;;
41657;SDS011;27347;57.132;-2.084;2022-11-20T01:56:50;25.25;;;4.95;;
41657;SDS011;27347;57.132;-2.084;2022-11-20T01:59:17;26.98;;;5.00;;
41657;SDS011;27347;57.132;-2.084;2022-11-20T02:01:43;28.05;;;4.95;;
41657;SDS011;27347;57.132;-2.084;2022-11-20T02:04:09;19.27;;;3.85;;
41657;SDS011;27347;57.132;-2.084;2022-11-20T02:06:35;25.45;;;5.25;;
41657;SDS011;27347;57.132;-2.084;2022-11-20T02:09:05;41.10;;;5.15;;
41657;SDS011;27347;57.132;-2.084;2022-11-20T02:11:30;27.17;;;4.95;;
41657;SDS011;27347;57.132;-2.084;2022-11-20T02:13:56;24.73;;;3.80;;
41657;SDS011;27347;57.132;-2.084;2022-11-20T02:16:24;28.05;;;5.05;;
41657;SDS011;27347;57.132;-2.084;2022-11-20T02:18:51;29.63;;;5.32;;
41657;SDS011;27347;57.132;-2.084;2022-11-20T02:21:20;23.90;;;3.88;;
41657;SDS011;27347;57.132;-2.084;2022-11-20T02:26:28;18.15;;;3.55;;
41657;SDS011;27347;57.132;-2.084;2022-11-20T02:28:56;19.90;;;4.10;;
41657;SDS011;27347;57.132;-2.084;2022-11-20T02:31:22;20.65;;;3.72;;
41657;SDS011;27347;57.132;-2.084;2022-11-20T02:33:47;18.55;;;3.50;;
41657;SDS011;27347;57.132;-2.084;2022-11-20T02:36:14;22.63;;;4.25;;
41657;SDS011;27347;57.132;-2.084;2022-11-20T02:38:41;18.77;;;4.18;;
41657;SDS011;27347;57.132;-2.084;2022-11-20T02:41:06;15.07;;;3.67;;
41657;SDS011;27347;57.132;-2.084;2022-11-20T02:43:32;14.30;;;3.67;;
41657;SDS011;27347;57.132;-2.084;2022-11-20T02:45:57;19.90;;;3.88;;
41657;SDS011;27347;57.132;-2.084;2022-11-20T02:48:23;19.60;;;3.25;;
41657;SDS011;27347;57.132;-2.084;2022-11-20T02:50:48;14.88;;;2.95;;
41657;SDS011;27347;57.132;-2.084;2022-11-20T02:53:13;16.85;;;3.35;;
41657;SDS011;27347;57.132;-2.084;2022-11-20T02:55:39;13.30;;;3.47;;
41657;SDS011;27347;57.132;-2.084;2022-11-20T02:58:04;17.88;;;3.65;;
41657;SDS011;27347;57.132;-2.084;2022-11-20T03:00:30;22.25;;;4.43;;
41657;SDS011;27347;57.132;-2.084;2022-11-20T03:02:56;26.65;;;4.88;;
41657;SDS011;27347;57.132;-2.084;2022-11-20T03:05:22;26.08;;;4.18;;
41657;SDS011;27347;57.132;-2.084;2022-11-20T03:07:47;26.38;;;4.97;;
41657;SDS011;27347;57.132;-2.084;2022-11-20T03:10:13;19.92;;;4.35;;
41657;SDS011;27347;57.132;-2.084;2022-11-20T03:12:38;23.27;;;4.53;;
41657;SDS011;27347;57.132;-2.084;2022-11-20T03:15:04;28.88;;;4.35;;
41657;SDS011;27347;57.132;-2.084;2022-11-20T03:17:29;32.97;;;5.55;;
41657;SDS011;27347;57.132;-2.084;2022-11-20T03:19:55;26.00;;;4.15;;
41657;SDS011;27347;57.132;-2.084;2022-11-20T09:56:20;11.00;;;2.53;;
41657;SDS011;27347;57.132;-2.084;2022-11-20T09:58:47;6.93;;;1.77;;
41657;SDS011;27347;57.132;-2.084;2022-11-20T10:01:15;6.53;;;1.27;;
41657;SDS011;27347;57.132;-2.084;2022-11-20T10:03:56;7.30;;;1.77;;
41657;SDS011;27347;57.132;-2.084;2022-11-20T10:06:31;5.88;;;1.17;;
41657;SDS011;27347;57.132;-2.084;2022-11-20T10:09:03;10.10;;;1.40;;
41657;SDS011;27347;57.132;-2.084;2022-11-20T10:11:54;4.88;;;1.65;;
41657;SDS011;27347;57.132;-2.084;2022-11-20T10:20:25;5.60;;;1.52;;
41657;SDS011;27347;57.132;-2.084;2022-11-20T10:28:48;10.70;;;1.92;;
41657;SDS011;27347;57.132;-2.084;2022-11-20T10:33:51;7.13;;;1.42;;
41657;SDS011;27347;57.132;-2.084;2022-11-20T10:36:19;7.32;;;1.60;;
41657;SDS011;27347;57.132;-2.084;2022-11-20T10:38:49;14.40;;;2.35;;
41657;SDS011;27347;57.132;-2.084;2022-11-20T10:41:23;8.27;;;2.42;;
41657;SDS011;27347;57.132;-2.084;2022-11-20T10:44:14;6.20;;;1.83;;
41657;SDS011;27347;57.132;-2.084;2022-11-20T10:47:01;13.35;;;2.15;;
41657;SDS011;27347;57.132;-2.084;2022-11-20T10:49:30;12.27;;;2.38;;
41657;SDS011;27347;57.132;-2.084;2022-11-20T10:52:02;14.93;;;2.08;;
41657;SDS011;27347;57.132;-2.084;2022-11-20T10:57:47;12.88;;;1.92;;
41657;SDS011;27347;57.132;-2.084;2022-11-20T11:00:21;9.48;;;2.10;;
41657;SDS011;27347;57.132;-2.084;2022-11-20T11:07:45;8.05;;;1.77;;
41657;SDS011;27347;57.132;-2.084;2022-11-20T11:10:36;8.02;;;1.40;;
41657;SDS011;27347;57.132;-2.084;2022-11-20T11:13:19;9.32;;;2.35;;
41657;SDS011;27347;57.132;-2.084;2022-11-20T11:15:48;4.63;;;1.60;;
41657;SDS011;27347;57.132;-2.084;2022-11-20T11:18:22;8.00;;;2.47;;
41657;SDS011;27347;57.132;-2.084;2022-11-20T11:20:52;7.75;;;2.40;;
41657;SDS011;27347;57.132;-2.084;2022-11-20T11:23:34;6.95;;;2.17;;
41657;SDS011;27347;57.132;-2.084;2022-11-20T11:26:02;6.72;;;2.00;;
41657;SDS011;27347;57.132;-2.084;2022-11-20T11:28:29;7.18;;;1.92;;
41657;SDS011;27347;57.132;-2.084;2022-11-20T11:30:55;6.18;;;2.10;;
41657;SDS011;27347;57.132;-2.084;2022-11-20T11:33:28;5.72;;;1.70;;
41657;SDS011;27347;57.132;-2.084;2022-11-20T11:38:42;8.40;;;2.30;;
41657;SDS011;27347;57.132;-2.084;2022-11-20T11:41:28;4.35;;;1.65;;
41657;SDS011;27347;57.132;-2.084;2022-11-20T11:43:58;3.03;;;1.42;;
41657;SDS011;27347;57.132;-2.084;2022-11-20T11:46:54;5.63;;;2.17;;
41657;SDS011;27347;57.132;-2.084;2022-11-20T11:49:20;3.78;;;2.00;;
41657;SDS011;27347;57.132;-2.084;2022-11-20T11:54:41;6.18;;;2.03;;
41657;SDS011;27347;57.132;-2.084;2022-11-20T11:57:20;8.40;;;2.40;;
41657;SDS011;27347;57.132;-2.084;2022-11-20T11:59:51;2.95;;;1.65;;
41657;SDS011;27347;57.132;-2.084;2022-11-20T12:02:28;3.90;;;1.83;;
41657;SDS011;27347;57.132;-2.084;2022-11-20T12:04:58;6.28;;;1.92;;
41657;SDS011;27347;57.132;-2.084;2022-11-20T12:07:39;2.08;;;1.60;;
41657;SDS011;27347;57.132;-2.084;2022-11-20T12:10:13;4.72;;;1.70;;
41657;SDS011;27347;57.132;-2.084;2022-11-20T12:15:51;2.63;;;1.30;;
41657;SDS011;27347;57.132;-2.084;2022-11-20T12:18:18;7.20;;;2.20;;
41657;SDS011;27347;57.132;-2.084;2022-11-20T12:20:53;5.00;;;2.63;;
41657;SDS011;27347;57.132;-2.084;2022-11-20T12:23:30;6.82;;;2.95;;
41657;SDS011;27347;57.132;-2.084;2022-11-20T12:26:05;4.72;;;2.45;;
41657;SDS011;27347;57.132;-2.084;2022-11-20T12:31:16;4.47;;;2.00;;
41657;SDS011;27347;57.132;-2.084;2022-11-20T12:33:54;4.90;;;2.70;;
41657;SDS011;27347;57.132;-2.084;2022-11-20T12:39:17;3.40;;;2.10;;
41657;SDS011;27347;57.132;-2.084;2022-11-20T12:45:09;4.07;;;2.75;;
41657;SDS011;27347;57.132;-2.084;2022-11-20T12:55:44;12.52;;;7.03;;
41657;SDS011;27347;57.132;-2.084;2022-11-20T13:01:28;7.07;;;3.97;;
41657;SDS011;27347;57.132;-2.084;2022-11-20T13:07:10;9.20;;;4.53;;
41657;SDS011;27347;57.132;-2.084;2022-11-20T13:09:46;8.18;;;4.15;;
41657;SDS011;27347;57.132;-2.084;2022-11-20T13:18:00;7.72;;;4.38;;
41657;SDS011;27347;57.132;-2.084;2022-11-20T13:20:27;12.68;;;7.10;;
41657;SDS011;27347;57.132;-2.084;2022-11-20T13:22:57;12.80;;;7.30;;
41657;SDS011;27347;57.132;-2.084;2022-11-20T13:25:23;12.30;;;7.25;;
41657;SDS011;27347;57.132;-2.084;2022-11-20T13:27:53;9.02;;;4.35;;
41657;SDS011;27347;57.132;-2.084;2022-11-20T13:30:23;7.95;;;3.92;;
41657;SDS011;27347;57.132;-2.084;2022-11-20T13:32:50;6.32;;;2.92;;
41657;SDS011;27347;57.132;-2.084;2022-11-20T13:38:06;5.05;;;3.00;;
41657;SDS011;27347;57.132;-2.084;2022-11-20T13:40:33;4.85;;;3.08;;
41657;SDS011;27347;57.132;-2.084;2022-11-20T13:43:20;2.95;;;1.95;;
41657;SDS011;27347;57.132;-2.084;2022-11-20T13:46:05;3.80;;;1.85;;
41657;SDS011;27347;57.132;-2.084;2022-11-20T13:48:34;7.70;;;2.10;;
41657;SDS011;27347;57.132;-2.084;2022-11-20T13:51:05;3.00;;;1.80;;
41657;SDS011;27347;57.132;-2.084;2022-11-20T13:56:34;4.30;;;2.42;;
41657;SDS011;27347;57.132;-2.084;2022-11-20T14:02:13;3.75;;;1.67;;
41657;SDS011;27347;57.132;-2.084;2022-11-20T14:04:42;1.90;;;1.60;;
41657;SDS011;27347;57.132;-2.084;2022-11-20T14:07:10;3.90;;;1.90;;
41657;SDS011;27347;57.132;-2.084;2022-11-20T14:09:35;7.30;;;2.08;;
41657;SDS011;27347;57.132;-2.084;2022-11-20T14:12:01;4.45;;;1.98;;
41657;SDS011;27347;57.132;-2.084;2022-11-20T14:14:29;7.10;;;2.05;;
41657;SDS011;27347;57.132;-2.084;2022-11-20T14:17:05;3.50;;;1.65;;
41657;SDS011;27347;57.132;-2.084;2022-11-20T14:19:40;2.72;;;1.95;;
41657;SDS011;27347;57.132;-2.084;2022-11-20T14:22:08;7.30;;;2.20;;
41657;SDS011;27347;57.132;-2.084;2022-11-20T14:24:34;6.75;;;1.90;;
41657;SDS011;27347;57.132;-2.084;2022-11-20T14:27:02;5.35;;;1.73;;
41657;SDS011;27347;57.132;-2.084;2022-11-20T14:29:28;6.25;;;1.52;;
41657;SDS011;27347;57.132;-2.084;2022-11-20T14:31:57;7.22;;;2.45;;
41657;SDS011;27347;57.132;-2.084;2022-11-20T14:34:27;7.22;;;2.38;;
41657;SDS011;27347;57.132;-2.084;2022-11-20T14:36:59;9.10;;;2.30;;
41657;SDS011;27347;57.132;-2.084;2022-11-20T14:42:19;12.77;;;2.28;;
41657;SDS011;27347;57.132;-2.084;2022-11-20T14:44:56;7.45;;;2.05;;
41657;SDS011;27347;57.132;-2.084;2022-11-20T14:47:25;4.53;;;1.83;;
41657;SDS011;27347;57.132;-2.084;2022-11-20T14:49:51;4.43;;;1.77;;
41657;SDS011;27347;57.132;-2.084;2022-11-20T14:52:21;5.38;;;2.05;;
41657;SDS011;27347;57.132;-2.084;2022-11-20T14:54:55;7.85;;;1.80;;
41657;SDS011;27347;57.132;-2.084;2022-11-20T14:57:25;7.00;;;2.40;;
41657;SDS011;27347;57.132;-2.084;2022-11-20T15:00:18;6.20;;;1.85;;
41657;SDS011;27347;57.132;-2.084;2022-11-20T15:02:46;4.50;;;1.92;;
41657;SDS011;27347;57.132;-2.084;2022-11-20T15:05:13;6.38;;;2.33;;
41657;SDS011;27347;57.132;-2.084;2022-11-20T15:07:43;4.40;;;2.00;;
41657;SDS011;27347;57.132;-2.084;2022-11-20T15:10:32;8.10;;;2.20;;
41657;SDS011;27347;57.132;-2.084;2022-11-20T15:13:00;3.80;;;1.83;;
41657;SDS011;27347;57.132;-2.084;2022-11-20T15:18:11;7.25;;;2.20;;
41657;SDS011;27347;57.132;-2.084;2022-11-20T15:20:47;7.45;;;2.55;;
41657;SDS011;27347;57.132;-2.084;2022-11-20T15:23:14;5.05;;;2.38;;
41657;SDS011;27347;57.132;-2.084;2022-11-20T15:25:42;5.57;;;2.42;;
41657;SDS011;27347;57.132;-2.084;2022-11-20T15:30:44;3.90;;;2.30;;
41657;SDS011;27347;57.132;-2.084;2022-11-20T15:33:10;4.85;;;2.15;;
41657;SDS011;27347;57.132;-2.084;2022-11-20T15:35:36;10.27;;;2.60;;
41657;SDS011;27347;57.132;-2.084;2022-11-20T15:38:02;4.55;;;2.22;;
41657;SDS011;27347;57.132;-2.084;2022-11-20T15:40:27;3.60;;;2.08;;
41657;SDS011;27347;57.132;-2.084;2022-11-20T15:42:53;7.43;;;2.53;;
41657;SDS011;27347;57.132;-2.084;2022-11-20T15:48:20;4.28;;;1.80;;
41657;SDS011;27347;57.132;-2.084;2022-11-20T15:50:57;3.45;;;2.05;;
41657;SDS011;27347;57.132;-2.084;2022-11-20T15:53:24;5.78;;;2.05;;
41657;SDS011;27347;57.132;-2.084;2022-11-20T15:55:50;6.85;;;2.63;;
41657;SDS011;27347;57.132;-2.084;2022-11-20T15:58:15;5.18;;;2.25;;
41657;SDS011;27347;57.132;-2.084;2022-11-20T16:00:42;6.70;;;2.70;;
41657;SDS011;27347;57.132;-2.084;2022-11-20T16:03:15;5.75;;;2.40;;
41657;SDS011;27347;57.132;-2.084;2022-11-20T16:05:41;4.05;;;2.55;;
41657;SDS011;27347;57.132;-2.084;2022-11-20T16:08:06;4.82;;;2.38;;
41657;SDS011;27347;57.132;-2.084;2022-11-20T16:10:32;4.88;;;2.47;;
41657;SDS011;27347;57.132;-2.084;2022-11-20T16:12:57;2.80;;;1.90;;
41657;SDS011;27347;57.132;-2.084;2022-11-20T16:15:41;3.87;;;2.17;;
41657;SDS011;27347;57.132;-2.084;2022-11-20T16:18:11;4.30;;;2.33;;
41657;SDS011;27347;57.132;-2.084;2022-11-20T16:20:38;5.13;;;3.40;;
41657;SDS011;27347;57.132;-2.084;2022-11-20T16:23:04;4.28;;;2.80;;
41657;SDS011;27347;57.132;-2.084;2022-11-20T16:25:30;5.82;;;4.50;;
41657;SDS011;27347;57.132;-2.084;2022-11-20T16:27:55;8.30;;;4.47;;
41657;SDS011;27347;57.132;-2.084;2022-11-20T16:30:21;6.45;;;4.68;;
41657;SDS011;27347;57.132;-2.084;2022-11-20T16:32:47;8.20;;;4.82;;
41657;SDS011;27347;57.132;-2.084;2022-11-20T16:35:12;7.68;;;4.75;;
41657;SDS011;27347;57.132;-2.084;2022-11-20T16:37:38;9.07;;;6.07;;
41657;SDS011;27347;57.132;-2.084;2022-11-20T16:40:04;24.02;;;9.88;;
41657;SDS011;27347;57.132;-2.084;2022-11-20T16:42:34;11.55;;;4.95;;
41657;SDS011;27347;57.132;-2.084;2022-11-20T16:44:59;7.95;;;4.40;;
41657;SDS011;27347;57.132;-2.084;2022-11-20T16:47:25;8.57;;;4.60;;
41657;SDS011;27347;57.132;-2.084;2022-11-20T16:49:50;8.82;;;4.93;;
41657;SDS011;27347;57.132;-2.084;2022-11-20T16:52:16;8.88;;;4.72;;
41657;SDS011;27347;57.132;-2.084;2022-11-20T16:54:41;10.13;;;4.78;;
41657;SDS011;27347;57.132;-2.084;2022-11-20T16:57:06;8.45;;;4.30;;
41657;SDS011;27347;57.132;-2.084;2022-11-20T16:59:32;9.77;;;5.05;;
41657;SDS011;27347;57.132;-2.084;2022-11-20T17:01:57;6.43;;;4.13;;
41657;SDS011;27347;57.132;-2.084;2022-11-20T17:04:23;10.95;;;4.60;;
41657;SDS011;27347;57.132;-2.084;2022-11-20T17:06:49;5.60;;;3.92;;
41657;SDS011;27347;57.132;-2.084;2022-11-20T17:09:14;7.13;;;4.13;;
41657;SDS011;27347;57.132;-2.084;2022-11-20T17:11:40;6.70;;;4.20;;
41657;SDS011;27347;57.132;-2.084;2022-11-20T17:14:05;4.75;;;3.80;;
41657;SDS011;27347;57.132;-2.084;2022-11-20T17:16:31;6.15;;;4.30;;
41657;SDS011;27347;57.132;-2.084;2022-11-20T17:18:59;11.15;;;6.55;;
41657;SDS011;27347;57.132;-2.084;2022-11-20T17:21:25;11.05;;;6.25;;
41657;SDS011;27347;57.132;-2.084;2022-11-20T17:23:51;22.58;;;10.32;;
41657;SDS011;27347;57.132;-2.084;2022-11-20T17:26:21;18.60;;;9.10;;
41657;SDS011;27347;57.132;-2.084;2022-11-20T17:28:54;29.58;;;16.00;;
41657;SDS011;27347;57.132;-2.084;2022-11-20T17:31:19;11.88;;;7.00;;
41657;SDS011;27347;57.132;-2.084;2022-11-20T17:33:45;12.02;;;6.85;;
41657;SDS011;27347;57.132;-2.084;2022-11-20T17:36:12;12.25;;;5.93;;
41657;SDS011;27347;57.132;-2.084;2022-11-20T17:38:39;13.55;;;6.15;;
41657;SDS011;27347;57.132;-2.084;2022-11-20T17:41:06;14.88;;;5.53;;
41657;SDS011;27347;57.132;-2.084;2022-11-20T17:43:33;11.05;;;5.75;;
41657;SDS011;27347;57.132;-2.084;2022-11-20T17:46:03;13.18;;;6.28;;
41657;SDS011;27347;57.132;-2.084;2022-11-20T17:48:35;11.30;;;6.60;;
41657;SDS011;27347;57.132;-2.084;2022-11-20T17:51:02;14.00;;;6.78;;
41657;SDS011;27347;57.132;-2.084;2022-11-20T17:53:32;21.27;;;8.68;;
41657;SDS011;27347;57.132;-2.084;2022-11-20T17:55:59;13.98;;;7.25;;
41657;SDS011;27347;57.132;-2.084;2022-11-20T17:58:43;16.87;;;7.57;;
41657;SDS011;27347;57.132;-2.084;2022-11-20T18:01:09;16.05;;;7.47;;
41657;SDS011;27347;57.132;-2.084;2022-11-20T18:03:34;13.25;;;6.68;;
41657;SDS011;27347;57.132;-2.084;2022-11-20T18:06:07;13.38;;;6.95;;
41657;SDS011;27347;57.132;-2.084;2022-11-20T18:08:45;18.60;;;9.05;;
41657;SDS011;27347;57.132;-2.084;2022-11-20T18:11:12;12.88;;;7.43;;
41657;SDS011;27347;57.132;-2.084;2022-11-20T18:13:42;14.70;;;6.43;;
41657;SDS011;27347;57.132;-2.084;2022-11-20T18:16:31;9.90;;;5.97;;
41657;SDS011;27347;57.132;-2.084;2022-11-20T18:18:58;11.23;;;6.28;;
41657;SDS011;27347;57.132;-2.084;2022-11-20T18:21:25;12.65;;;7.15;;
41657;SDS011;27347;57.132;-2.084;2022-11-20T18:23:51;10.80;;;6.57;;
41657;SDS011;27347;57.132;-2.084;2022-11-20T18:26:17;9.32;;;5.82;;
41657;SDS011;27347;57.132;-2.084;2022-11-20T18:28:43;12.55;;;6.60;;
41657;SDS011;27347;57.132;-2.084;2022-11-20T18:31:09;10.35;;;6.57;;
41657;SDS011;27347;57.132;-2.084;2022-11-20T18:33:35;9.48;;;6.45;;
41657;SDS011;27347;57.132;-2.084;2022-11-20T18:36:13;10.30;;;6.45;;
41657;SDS011;27347;57.132;-2.084;2022-11-20T18:38:43;12.57;;;6.22;;
41657;SDS011;27347;57.132;-2.084;2022-11-20T18:41:11;10.88;;;5.90;;
41657;SDS011;27347;57.132;-2.084;2022-11-20T18:43:56;11.82;;;6.72;;
41657;SDS011;27347;57.132;-2.084;2022-11-20T18:46:40;10.25;;;6.78;;
41657;SDS011;27347;57.132;-2.084;2022-11-20T18:49:07;11.60;;;7.18;;
41657;SDS011;27347;57.132;-2.084;2022-11-20T18:51:32;12.68;;;7.22;;
41657;SDS011;27347;57.132;-2.084;2022-11-20T18:53:58;11.43;;;7.07;;
41657;SDS011;27347;57.132;-2.084;2022-11-20T18:56:23;13.23;;;8.52;;
41657;SDS011;27347;57.132;-2.084;2022-11-20T18:58:49;11.80;;;6.95;;
41657;SDS011;27347;57.132;-2.084;2022-11-20T19:01:14;13.35;;;6.32;;
41657;SDS011;27347;57.132;-2.084;2022-11-20T19:03:39;10.25;;;5.95;;
41657;SDS011;27347;57.132;-2.084;2022-11-20T19:06:05;9.45;;;5.35;;
41657;SDS011;27347;57.132;-2.084;2022-11-20T19:08:33;8.88;;;5.15;;
41657;SDS011;27347;57.132;-2.084;2022-11-20T19:11:05;9.40;;;5.15;;
41657;SDS011;27347;57.132;-2.084;2022-11-20T19:13:32;8.80;;;5.22;;
41657;SDS011;27347;57.132;-2.084;2022-11-20T19:16:04;9.02;;;5.60;;
41657;SDS011;27347;57.132;-2.084;2022-11-20T19:18:34;7.78;;;4.57;;
41657;SDS011;27347;57.132;-2.084;2022-11-20T19:23:58;10.98;;;5.80;;
41657;SDS011;27347;57.132;-2.084;2022-11-20T19:26:24;8.30;;;5.50;;
41657;SDS011;27347;57.132;-2.084;2022-11-20T19:28:50;11.23;;;6.00;;
41657;SDS011;27347;57.132;-2.084;2022-11-20T19:31:19;10.88;;;5.95;;
41657;SDS011;27347;57.132;-2.084;2022-11-20T19:33:47;9.93;;;6.50;;
41657;SDS011;27347;57.132;-2.084;2022-11-20T19:36:16;14.68;;;7.25;;
41657;SDS011;27347;57.132;-2.084;2022-11-20T19:38:47;12.43;;;7.75;;
41657;SDS011;27347;57.132;-2.084;2022-11-20T19:41:17;12.00;;;6.95;;
41657;SDS011;27347;57.132;-2.084;2022-11-20T19:43:44;7.20;;;5.50;;
41657;SDS011;27347;57.132;-2.084;2022-11-20T19:46:16;15.95;;;6.88;;
41657;SDS011;27347;57.132;-2.084;2022-11-20T19:48:42;11.10;;;6.75;;
41657;SDS011;27347;57.132;-2.084;2022-11-20T19:51:12;8.38;;;5.38;;
41657;SDS011;27347;57.132;-2.084;2022-11-20T19:53:42;8.57;;;5.65;;
41657;SDS011;27347;57.132;-2.084;2022-11-20T19:56:08;7.35;;;4.93;;
41657;SDS011;27347;57.132;-2.084;2022-11-20T19:58:34;7.82;;;5.15;;
41657;SDS011;27347;57.132;-2.084;2022-11-20T20:01:07;9.82;;;6.10;;
41657;SDS011;27347;57.132;-2.084;2022-11-20T20:03:40;8.15;;;5.38;;
41657;SDS011;27347;57.132;-2.084;2022-11-20T20:06:09;9.13;;;4.85;;
41657;SDS011;27347;57.132;-2.084;2022-11-20T20:08:37;9.63;;;6.45;;
41657;SDS011;27347;57.132;-2.084;2022-11-20T20:11:12;8.65;;;5.20;;
41657;SDS011;27347;57.132;-2.084;2022-11-20T20:13:40;8.50;;;4.78;;
41657;SDS011;27347;57.132;-2.084;2022-11-20T20:16:09;6.00;;;3.80;;
41657;SDS011;27347;57.132;-2.084;2022-11-20T20:18:38;7.13;;;4.82;;
41657;SDS011;27347;57.132;-2.084;2022-11-20T20:21:05;6.85;;;3.97;;
41657;SDS011;27347;57.132;-2.084;2022-11-20T20:23:32;5.45;;;4.10;;
41657;SDS011;27347;57.132;-2.084;2022-11-20T20:25:58;5.47;;;3.80;;
41657;SDS011;27347;57.132;-2.084;2022-11-20T20:28:23;5.15;;;3.42;;
41657;SDS011;27347;57.132;-2.084;2022-11-20T20:30:50;6.65;;;3.70;;
41657;SDS011;27347;57.132;-2.084;2022-11-20T20:33:15;5.28;;;3.88;;
41657;SDS011;27347;57.132;-2.084;2022-11-20T20:35:41;5.15;;;3.55;;
41657;SDS011;27347;57.132;-2.084;2022-11-20T20:38:07;6.05;;;4.10;;
41657;SDS011;27347;57.132;-2.084;2022-11-20T20:40:33;8.48;;;4.63;;
41657;SDS011;27347;57.132;-2.084;2022-11-20T20:42:58;6.30;;;4.38;;
41657;SDS011;27347;57.132;-2.084;2022-11-20T20:45:24;8.85;;;5.45;;
41657;SDS011;27347;57.132;-2.084;2022-11-20T20:47:49;7.50;;;4.75;;
41657;SDS011;27347;57.132;-2.084;2022-11-20T20:50:15;10.32;;;5.22;;
41657;SDS011;27347;57.132;-2.084;2022-11-20T20:52:40;10.55;;;6.20;;
41657;SDS011;27347;57.132;-2.084;2022-11-20T20:55:06;8.50;;;5.88;;
41657;SDS011;27347;57.132;-2.084;2022-11-20T20:57:32;9.75;;;5.80;;
41657;SDS011;27347;57.132;-2.084;2022-11-20T20:59:58;14.00;;;6.88;;
41657;SDS011;27347;57.132;-2.084;2022-11-20T21:02:23;14.13;;;6.15;;
41657;SDS011;27347;57.132;-2.084;2022-11-20T21:04:49;9.77;;;5.80;;
41657;SDS011;27347;57.132;-2.084;2022-11-20T21:07:15;9.82;;;5.57;;
41657;SDS011;27347;57.132;-2.084;2022-11-20T21:09:41;9.45;;;5.72;;
41657;SDS011;27347;57.132;-2.084;2022-11-20T21:12:06;8.73;;;5.78;;
41657;SDS011;27347;57.132;-2.084;2022-11-20T21:14:32;6.80;;;4.50;;
41657;SDS011;27347;57.132;-2.084;2022-11-20T21:16:58;8.65;;;5.45;;
41657;SDS011;27347;57.132;-2.084;2022-11-20T21:19:23;9.07;;;4.85;;
41657;SDS011;27347;57.132;-2.084;2022-11-20T21:21:49;8.55;;;4.65;;
41657;SDS011;27347;57.132;-2.084;2022-11-20T21:24:26;6.90;;;4.72;;
41657;SDS011;27347;57.132;-2.084;2022-11-20T21:27:02;9.68;;;4.97;;
41657;SDS011;27347;57.132;-2.084;2022-11-20T21:29:28;9.65;;;5.22;;
41657;SDS011;27347;57.132;-2.084;2022-11-20T21:31:55;7.90;;;4.78;;
41657;SDS011;27347;57.132;-2.084;2022-11-20T21:34:21;8.10;;;4.97;;
41657;SDS011;27347;57.132;-2.084;2022-11-20T21:36:46;6.57;;;4.30;;
41657;SDS011;27347;57.132;-2.084;2022-11-20T21:39:12;7.80;;;4.05;;
41657;SDS011;27347;57.132;-2.084;2022-11-20T21:41:38;6.13;;;4.28;;
41657;SDS011;27347;57.132;-2.084;2022-11-20T21:44:04;7.68;;;3.72;;
41657;SDS011;27347;57.132;-2.084;2022-11-20T21:46:31;8.13;;;3.85;;
41657;SDS011;27347;57.132;-2.084;2022-11-20T21:48:58;6.82;;;3.53;;
41657;SDS011;27347;57.132;-2.084;2022-11-20T21:51:24;6.47;;;3.47;;
41657;SDS011;27347;57.132;-2.084;2022-11-20T21:53:52;6.50;;;4.20;;
41657;SDS011;27347;57.132;-2.084;2022-11-20T21:56:19;6.40;;;3.63;;
41657;SDS011;27347;57.132;-2.084;2022-11-20T21:58:45;6.28;;;4.00;;
41657;SDS011;27347;57.132;-2.084;2022-11-20T22:01:15;5.65;;;3.47;;
41657;SDS011;27347;57.132;-2.084;2022-11-20T22:03:45;7.15;;;3.45;;
41657;SDS011;27347;57.132;-2.084;2022-11-20T22:06:12;5.13;;;3.50;;
41657;SDS011;27347;57.132;-2.084;2022-11-20T22:08:38;5.20;;;3.67;;
41657;SDS011;27347;57.132;-2.084;2022-11-20T22:11:07;8.68;;;4.07;;
41657;SDS011;27347;57.132;-2.084;2022-11-20T22:13:34;10.20;;;5.85;;
41657;SDS011;27347;57.132;-2.084;2022-11-20T22:16:18;4.97;;;3.58;;
41657;SDS011;27347;57.132;-2.084;2022-11-20T22:18:44;8.98;;;4.50;;
41657;SDS011;27347;57.132;-2.084;2022-11-20T22:21:10;8.15;;;4.50;;
41657;SDS011;27347;57.132;-2.084;2022-11-20T22:23:37;7.85;;;4.45;;
41657;SDS011;27347;57.132;-2.084;2022-11-20T22:26:03;7.95;;;4.20;;
41657;SDS011;27347;57.132;-2.084;2022-11-20T22:28:30;9.95;;;4.15;;
41657;SDS011;27347;57.132;-2.084;2022-11-20T22:30:56;9.88;;;4.28;;
41657;SDS011;27347;57.132;-2.084;2022-11-20T22:33:28;10.68;;;4.30;;
41657;SDS011;27347;57.132;-2.084;2022-11-20T22:35:59;31.48;;;6.63;;
41657;SDS011;27347;57.132;-2.084;2022-11-20T22:38:28;6.10;;;3.58;;
41657;SDS011;27347;57.132;-2.084;2022-11-20T22:41:04;8.48;;;4.15;;
41657;SDS011;27347;57.132;-2.084;2022-11-20T22:43:57;7.95;;;4.22;;
41657;SDS011;27347;57.132;-2.084;2022-11-20T22:46:24;7.55;;;4.28;;